РУС

ENG

 
  Pireps - S7
 

Рейс SBI1028

  • Выполнял: Valeriy Volkov
  • Аэропорт отправления: Pulkovo Airport (ULLI)
  • Аэропорт назначения: Domodedovo Airport (UUDD)
  • Тип ВС: B737-800 (VQ-BVK)
  • Время полёта: 01.07
  • Дата полёта: 11.10.2020
  • Маршрут: SUGIN R904 KANET T576 NAMIN
  • Статус: Одобрен

Детали полёта
Gross Revenue:
(119 load / $ 125.00 per unit
$ 14, 875.00
Fuel Cost:
(3093 fuel used @ 5.1 / unit)
$ 15, 774.30


Дополнительная информация о полёте:

Лог

Aircraft Used in flight is B737-800X S7 One World VQ-BKW
16:28Flaps 2 Selected at 80ft and 4kts
16:28 Boarding
16:28 Engine 1 Started
16:28 Engine 2 Started
16:28 Beacon Lights ON at 80 AGL
16:28 Brakes are On
16:28Flaps 3 Selected at 80ft and 4kts
16:29 Brakes are Released
16:29 You Took off @ 166 Knots and Flaps at Position 3
Departure Weather
ULLI 111300Z 13002MPS 110V170 9000 BKN005 12/11 Q1017 R10R/290050 NOSIG RMK OBST OBSC
16:29 You are Airborne and your Navigation Lights are off
16:29 Landing Gear Up @ 176 Knots and 120 Feet
16:29 Brakes are On
16:30 Landing Lights ON at 1650 AGL
16:30Flaps 2 Selected at 3190ft and 183kts
16:32Flaps Retracted at 8080ft and 235kts
16:32 Below 10000 feet you are not allowed to go over 250 knots
16:33 Landing Lights OFF at 9820 AGL
16:43 TOC Reached
17:13 Spoilers Armed
17:13 Spoilers Disarmed
17:23 Landing Lights ON at 9960 AGL
17:28 You exceeded maximum bank angle
17:30Flaps 1 Selected at 3600ft and 236kts
17:30 Landing Gear Down @ 244 Knots and 3620 Feet
17:30 Brakes are Released
17:31Flaps 2 Selected at 3570ft and 226kts
17:33Flaps 3 Selected at 2460ft and 236kts
17:33Flaps 4 Selected at 1750ft and 210kts
17:34Flaps 6 Selected at 1370ft and 195kts
17:34Flaps 7 Selected at 1370ft and 195kts
17:35Flaps 8 Selected at 610ft and 157kts
17:35 Brakes are On
17:35 You Landed @ 142 Knots and with -350 Vertical Speed
Arrival Weather
UUDD 111300Z 15006MPS 9999 SCT044 12/03 Q1020 R88/CLRD60 NOSIG
Pirep logged with S7 Tracking 1.0.0.14



Общая оценка полета : 100%




Route Map



 
 
   
 
Новости

03.09.2020 - Полеты в MFS 2020

Спешим сообщить вам, что теперь наш S7 Pad поддерживается для полетов в новом симуляторе MFS 2020. В разделе Загрузки вы найдете FSUIPC7.rar
Инструкция для запуска прилагается!

   
 
Авторизация






Регистрация

Восстановить пароль?

Мы в соц. сетях

      



   
 





   
 


   
 


Яндекс.Метрика

www.va-s7.ru 2011-2020
Все права защищены.



Минуточку внимания!
Сайт va-s7.ru не является коммерческим проектом. Мы не имеем отношения к торговым маркам "S7" и "Globus" и их представителям.
Эмблемы на сайте являются собственностью соответствующих компаний.

аэронавигационная метеорологическая и любая другая информация с данного ресурса ни в коем случае не должна использоваться для реальных полетов